createdAt,value
2018-05-23T00:02:06.739Z,18.34
2018-05-23T00:04:32.678Z,18.17
2018-05-23T00:06:58.613Z,18.25
2018-05-23T00:09:24.545Z,18.11
2018-05-23T00:11:50.517Z,17.98
2018-05-23T00:14:16.464Z,17.94
2018-05-23T00:16:42.413Z,18.12
2018-05-23T00:19:08.378Z,17.93
2018-05-23T00:24:06.734Z,18.12
2018-05-23T00:26:32.686Z,17.97
2018-05-23T00:28:58.648Z,17.95
2018-05-23T00:31:24.607Z,18.01
2018-05-23T00:33:50.568Z,17.88
2018-05-23T00:36:16.548Z,18.23
2018-05-23T00:38:42.516Z,17.88
2018-05-23T00:41:08.450Z,17.91
2018-05-23T00:43:34.416Z,17.66
2018-05-23T00:46:00.360Z,17.59
2018-05-23T00:48:26.299Z,17.76
2018-05-23T00:50:52.238Z,17.59
2018-05-23T00:53:18.179Z,17.61
2018-05-23T00:55:44.108Z,17.77
2018-05-23T00:58:10.069Z,17.86
2018-05-23T01:00:36.113Z,17.93
2018-05-23T01:03:02.087Z,17.54
2018-05-23T01:05:28.036Z,17.89
2018-05-23T01:07:53.971Z,17.92
2018-05-23T01:10:19.944Z,18.17
2018-05-23T01:12:45.901Z,18.04
2018-05-23T01:15:11.867Z,17.87
2018-05-23T01:17:37.898Z,17.78
2018-05-23T01:20:03.845Z,17.75
2018-05-23T01:22:29.809Z,17.90
2018-05-23T01:24:55.786Z,17.75
2018-05-23T01:27:21.711Z,17.67
2018-05-23T01:29:47.675Z,17.74
2018-05-23T01:32:13.639Z,17.57
2018-05-23T01:34:39.574Z,17.45
2018-05-23T01:37:05.534Z,17.77
2018-05-23T01:39:31.480Z,17.73
2018-05-23T01:41:57.439Z,17.76
2018-05-23T01:44:23.394Z,17.81
2018-05-23T01:46:49.331Z,17.39
2018-05-23T01:49:15.298Z,17.49
2018-05-23T01:51:41.253Z,17.62
2018-05-23T01:54:07.200Z,17.67
2018-05-23T01:56:33.162Z,17.75
2018-05-23T01:58:59.127Z,17.74
2018-05-23T02:01:25.173Z,17.87
2018-05-23T02:03:51.155Z,17.65
2018-05-23T02:06:17.108Z,17.36
2018-05-23T02:08:43.088Z,17.48
2018-05-23T02:11:09.024Z,17.53
2018-05-23T02:13:34.965Z,17.29
2018-05-23T02:16:00.899Z,17.14
2018-05-23T02:18:26.866Z,17.11
2018-05-23T02:20:52.824Z,17.16
2018-05-23T02:23:18.792Z,17.52
2018-05-23T02:25:44.731Z,17.60
2018-05-23T02:28:10.658Z,17.76
2018-05-23T02:30:36.596Z,17.54
2018-05-23T02:33:02.563Z,17.76
2018-05-23T02:35:28.524Z,17.26
2018-05-23T02:37:54.473Z,17.35
2018-05-23T02:40:20.450Z,17.32
2018-05-23T02:42:46.379Z,17.55
2018-05-23T02:45:12.333Z,17.52
2018-05-23T02:47:38.302Z,17.56
2018-05-23T02:50:04.266Z,17.50
2018-05-23T02:52:30.255Z,17.29
2018-05-23T02:54:56.243Z,17.19
2018-05-23T02:57:22.190Z,17.21
2018-05-23T02:59:48.163Z,17.25
2018-05-23T03:02:14.107Z,17.42
2018-05-23T03:04:40.066Z,17.64
2018-05-23T03:07:06.034Z,17.73
2018-05-23T03:09:31.997Z,17.85
2018-05-23T03:11:57.930Z,17.60
2018-05-23T03:14:23.880Z,17.49
2018-05-23T03:16:49.839Z,17.39
2018-05-23T03:19:15.778Z,17.79
2018-05-23T03:21:41.732Z,18.01
2018-05-23T03:24:07.719Z,17.94
2018-05-23T03:26:33.681Z,17.60
2018-05-23T03:28:59.669Z,18.00
2018-05-23T03:31:25.613Z,17.77
2018-05-23T03:33:54.913Z,17.37
2018-05-23T03:36:20.846Z,17.93
2018-05-23T03:38:46.813Z,17.60
2018-05-23T03:41:12.763Z,17.96
2018-05-23T03:43:38.771Z,17.85
2018-05-23T03:46:04.721Z,17.49
2018-05-23T03:48:30.983Z,17.01
2018-05-23T03:50:56.963Z,17.70
2018-05-23T03:53:22.934Z,17.10
2018-05-23T03:55:48.917Z,17.42
2018-05-23T03:58:14.883Z,17.90
2018-05-23T04:00:40.917Z,17.84
2018-05-23T04:03:06.885Z,18.43
2018-05-23T04:05:32.827Z,17.54
2018-05-23T04:07:58.834Z,16.81
2018-05-23T04:10:24.803Z,16.83
2018-05-23T04:12:50.821Z,17.34
2018-05-23T04:15:16.776Z,17.63
2018-05-23T04:17:42.718Z,17.42
2018-05-23T04:20:08.686Z,17.79
2018-05-23T04:22:34.640Z,17.63
2018-05-23T04:25:00.688Z,17.84
2018-05-23T04:27:26.575Z,17.25
2018-05-23T04:29:52.548Z,17.76
2018-05-23T04:32:18.515Z,17.40
2018-05-23T04:34:44.480Z,17.45
2018-05-23T04:37:10.439Z,17.70
2018-05-23T04:39:36.418Z,17.93
2018-05-23T04:42:02.396Z,18.28
2018-05-23T04:44:28.326Z,18.63
2018-05-23T04:46:54.284Z,18.28
2018-05-23T04:49:20.267Z,17.61
2018-05-23T04:51:46.199Z,18.20
2018-05-23T04:54:12.174Z,18.53
2018-05-23T04:56:38.109Z,18.57
2018-05-23T04:59:04.068Z,18.49
2018-05-23T05:01:30.033Z,18.92
2018-05-23T05:03:55.982Z,19.41
2018-05-23T05:06:21.916Z,19.54
2018-05-23T05:08:47.862Z,19.09
2018-05-23T05:11:14.005Z,19.42
2018-05-23T05:13:39.964Z,20.14
2018-05-23T05:16:06.015Z,19.82
2018-05-23T05:18:31.981Z,19.53
2018-05-23T05:20:57.918Z,20.28
2018-05-23T05:23:23.866Z,19.98
2018-05-23T05:25:49.918Z,19.83
2018-05-23T05:28:15.877Z,19.97
2018-05-23T05:30:41.890Z,20.50
2018-05-23T05:33:07.853Z,20.56
2018-05-23T05:35:33.846Z,20.54
2018-05-23T05:37:59.790Z,20.89
2018-05-23T05:40:25.784Z,21.47
2018-05-23T05:42:51.733Z,21.97
2018-05-23T05:45:17.721Z,21.74
2018-05-23T05:47:43.709Z,21.36
2018-05-23T05:50:09.684Z,21.98
2018-05-23T05:52:35.666Z,22.12
2018-05-23T05:55:01.666Z,22.01
2018-05-23T05:57:27.654Z,21.96
2018-05-23T05:59:53.639Z,22.41
2018-05-23T06:02:19.600Z,22.66
2018-05-23T06:04:45.561Z,22.95
2018-05-23T06:07:11.507Z,23.36
2018-05-23T06:09:37.497Z,23.54
2018-05-23T06:12:03.453Z,23.60
2018-05-23T06:14:29.441Z,23.11
2018-05-23T06:16:55.393Z,23.27
2018-05-23T06:19:21.429Z,23.68
2018-05-23T06:21:47.413Z,23.98
2018-05-23T06:24:13.386Z,24.19
2018-05-23T06:26:39.365Z,24.39
2018-05-23T06:29:05.319Z,24.49
2018-05-23T06:31:31.277Z,24.12
2018-05-23T06:33:57.256Z,24.31
2018-05-23T06:36:23.226Z,24.70
2018-05-23T06:38:49.199Z,24.78
2018-05-23T06:41:15.217Z,24.68
2018-05-23T06:43:41.286Z,24.96
2018-05-23T06:46:07.261Z,25.31
2018-05-23T06:48:33.222Z,25.34
2018-05-23T06:50:59.154Z,25.55
2018-05-23T06:53:25.202Z,25.51
2018-05-23T06:55:51.188Z,26.14
2018-05-23T06:58:17.145Z,26.15
2018-05-23T07:00:43.120Z,25.99
2018-05-23T07:03:09.106Z,26.29
2018-05-23T07:05:35.068Z,26.84
2018-05-23T07:08:01.017Z,26.28
2018-05-23T07:10:26.953Z,26.48
2018-05-23T07:12:52.906Z,26.31
2018-05-23T07:15:18.855Z,27.12
2018-05-23T07:17:44.830Z,27.03
2018-05-23T07:20:10.863Z,27.00
2018-05-23T07:22:37.793Z,27.24
2018-05-23T07:25:03.758Z,26.72
2018-05-23T07:27:29.701Z,27.17
2018-05-23T07:29:55.667Z,27.11
2018-05-23T07:32:21.652Z,27.18
2018-05-23T07:34:47.620Z,27.52
2018-05-23T07:37:13.562Z,27.34
2018-05-23T07:39:39.523Z,28.21
2018-05-23T07:42:05.484Z,28.37
2018-05-23T07:44:31.479Z,27.85
2018-05-23T07:46:57.453Z,27.95
2018-05-23T07:49:23.426Z,28.29
2018-05-23T07:51:49.430Z,28.30
2018-05-23T07:54:15.404Z,27.74
2018-05-23T07:56:41.395Z,28.07
2018-05-23T07:59:07.329Z,28.08
2018-05-23T08:01:33.287Z,27.97
2018-05-23T08:03:59.232Z,28.27
2018-05-23T08:06:25.173Z,28.39
2018-05-23T08:08:51.205Z,28.25
2018-05-23T08:11:17.207Z,28.16
2018-05-23T08:13:43.262Z,28.02
2018-05-23T08:16:09.264Z,27.70
2018-05-23T08:18:35.257Z,27.42
2018-05-23T08:21:01.330Z,27.41
2018-05-23T08:23:27.343Z,27.57
2018-05-23T08:25:53.342Z,26.99
2018-05-23T08:28:20.049Z,26.71
2018-05-23T08:30:46.054Z,26.38
2018-05-23T08:33:12.076Z,26.32
2018-05-23T08:35:38.078Z,25.84
2018-05-23T08:38:04.027Z,25.32
2018-05-23T08:40:29.981Z,25.71
2018-05-23T08:42:55.922Z,25.37
2018-05-23T08:45:21.901Z,25.22
2018-05-23T08:47:47.886Z,25.21
2018-05-23T08:50:13.865Z,25.12
2018-05-23T08:52:39.935Z,25.05
2018-05-23T08:55:05.887Z,25.15
2018-05-23T08:57:31.850Z,25.24
2018-05-23T08:59:57.857Z,25.17
2018-05-23T09:02:23.794Z,24.80
2018-05-23T09:04:49.772Z,24.79
2018-05-23T09:07:15.702Z,24.75
2018-05-23T09:09:41.704Z,24.79
2018-05-23T09:12:07.710Z,24.69
2018-05-23T09:14:33.695Z,24.52
2018-05-23T09:16:59.683Z,24.41
2018-05-23T09:19:25.645Z,24.49
2018-05-23T09:21:51.604Z,24.49
2018-05-23T09:24:17.562Z,24.74
2018-05-23T09:26:43.498Z,24.85
2018-05-23T09:29:09.479Z,24.66
2018-05-23T09:31:35.443Z,24.60
2018-05-23T09:34:01.481Z,24.58
2018-05-23T09:36:27.490Z,24.63
2018-05-23T09:38:53.464Z,24.69
2018-05-23T09:41:19.402Z,24.57
2018-05-23T09:43:45.395Z,24.44
2018-05-23T09:46:11.342Z,24.63
2018-05-23T09:48:37.293Z,24.48
2018-05-23T09:51:03.247Z,24.51
2018-05-23T09:53:29.252Z,24.34
2018-05-23T09:55:55.212Z,24.37
2018-05-23T09:58:21.221Z,24.45
2018-05-23T10:00:47.235Z,24.35
2018-05-23T10:03:13.238Z,24.38
2018-05-23T10:05:39.198Z,24.37
2018-05-23T10:08:05.146Z,24.07
2018-05-23T10:10:31.123Z,24.12
2018-05-23T10:12:57.106Z,24.18
2018-05-23T10:15:23.075Z,24.14
2018-05-23T10:17:49.077Z,24.04
2018-05-23T10:20:15.049Z,23.95
2018-05-23T10:22:41.067Z,23.96
2018-05-23T10:25:07.064Z,23.72
2018-05-23T10:27:33.022Z,23.71
2018-05-23T10:29:59.094Z,23.64
2018-05-23T10:32:25.109Z,23.58
2018-05-23T10:34:51.090Z,23.52
2018-05-23T10:37:17.098Z,23.56
2018-05-23T10:39:43.099Z,23.60
2018-05-23T10:42:09.076Z,23.63
2018-05-23T10:44:35.102Z,23.46
2018-05-23T10:47:01.107Z,23.50
2018-05-23T10:49:27.116Z,23.45
2018-05-23T10:51:53.075Z,23.44
2018-05-23T10:54:19.089Z,23.35
2018-05-23T10:56:45.026Z,23.22
2018-05-23T10:59:11.073Z,23.16
2018-05-23T11:01:37.064Z,23.11
2018-05-23T11:04:03.089Z,23.09
2018-05-23T11:06:29.049Z,23.07
2018-05-23T11:08:55.049Z,23.10
2018-05-23T11:11:20.986Z,23.04
2018-05-23T11:13:47.096Z,22.88
2018-05-23T11:16:13.065Z,22.81
2018-05-23T11:18:39.031Z,22.92
2018-05-23T11:21:04.993Z,22.81
2018-05-23T11:23:30.977Z,22.77
2018-05-23T11:25:56.961Z,22.77
2018-05-23T11:28:22.916Z,22.74
2018-05-23T11:30:48.871Z,22.73
2018-05-23T11:33:14.807Z,22.81
2018-05-23T11:35:40.782Z,22.74
2018-05-23T11:38:06.731Z,22.63
2018-05-23T11:40:32.696Z,22.58
2018-05-23T11:42:58.650Z,22.72
2018-05-23T11:45:24.681Z,22.64
2018-05-23T11:47:50.661Z,22.55
2018-05-23T11:50:16.650Z,22.57
2018-05-23T11:52:42.614Z,22.59
2018-05-23T11:55:08.640Z,22.48
2018-05-23T11:57:34.591Z,22.55
2018-05-23T12:00:00.604Z,22.62
2018-05-23T12:02:26.561Z,22.76
2018-05-23T12:04:52.575Z,22.65
2018-05-23T12:07:18.560Z,22.66
2018-05-23T12:09:44.538Z,22.57
2018-05-23T12:12:10.473Z,22.48
2018-05-23T12:14:36.432Z,22.59
2018-05-23T12:17:02.366Z,22.56
2018-05-23T12:19:28.362Z,22.54
2018-05-23T12:21:54.306Z,22.39
2018-05-23T12:24:20.300Z,22.50
2018-05-23T12:26:46.318Z,22.57
2018-05-23T12:29:12.284Z,22.49
2018-05-23T12:31:38.229Z,22.61
2018-05-23T12:34:04.233Z,22.68
2018-05-23T12:36:30.236Z,22.80
2018-05-23T12:38:56.212Z,22.86
2018-05-23T12:41:22.235Z,22.89
2018-05-23T12:43:48.181Z,22.88
2018-05-23T12:46:14.147Z,22.93
2018-05-23T12:48:40.160Z,22.94
2018-05-23T12:51:06.202Z,22.98
2018-05-23T12:53:32.193Z,23.04
2018-05-23T12:55:58.198Z,23.06
2018-05-23T12:58:24.210Z,22.90
2018-05-23T13:00:50.173Z,22.82
2018-05-23T13:03:16.146Z,22.95
2018-05-23T13:05:42.154Z,23.06
2018-05-23T13:08:08.138Z,23.07
2018-05-23T13:10:34.151Z,23.12
2018-05-23T13:13:00.133Z,23.10
2018-05-23T13:15:26.205Z,23.09
2018-05-23T13:17:52.243Z,23.13
2018-05-23T13:20:18.253Z,23.15
2018-05-23T13:22:44.214Z,23.15
2018-05-23T13:25:10.207Z,23.12
2018-05-23T13:27:36.201Z,23.17
2018-05-23T13:30:02.184Z,23.25
2018-05-23T13:32:28.199Z,23.23
2018-05-23T13:34:54.176Z,23.20
2018-05-23T13:37:20.138Z,23.21
2018-05-23T13:39:46.164Z,23.21
2018-05-23T13:42:12.127Z,23.29
2018-05-23T13:44:38.153Z,23.30
2018-05-23T13:47:04.144Z,23.26
2018-05-23T13:49:30.113Z,23.31
2018-05-23T13:51:57.397Z,23.33
2018-05-23T13:54:23.375Z,23.43
2018-05-23T13:56:49.335Z,23.45
2018-05-23T13:59:15.295Z,23.51
2018-05-23T14:01:41.335Z,23.49
2018-05-23T14:04:07.295Z,23.56
2018-05-23T14:06:33.235Z,23.54
2018-05-23T14:08:59.217Z,23.50
2018-05-23T14:11:25.237Z,23.43
2018-05-23T14:13:51.177Z,23.28
2018-05-23T14:16:17.142Z,23.37
2018-05-23T14:18:43.121Z,23.37
2018-05-23T14:21:09.172Z,23.38
2018-05-23T14:23:35.129Z,23.40
2018-05-23T14:26:01.122Z,23.38
2018-05-23T14:28:27.130Z,23.36
2018-05-23T14:30:53.092Z,23.38
2018-05-23T14:33:19.047Z,23.44
2018-05-23T14:35:45.062Z,23.39
2018-05-23T14:38:10.950Z,23.42
2018-05-23T14:40:36.961Z,23.41
2018-05-23T14:43:02.937Z,23.38
2018-05-23T14:45:28.940Z,23.40
2018-05-23T14:47:54.976Z,23.37
2018-05-23T14:50:20.984Z,23.48
2018-05-23T14:52:46.958Z,23.54
2018-05-23T14:55:12.899Z,23.53
2018-05-23T14:57:38.957Z,23.53
2018-05-23T15:00:04.905Z,23.52
2018-05-23T15:02:30.953Z,23.50
2018-05-23T15:04:56.864Z,23.52
2018-05-23T15:07:22.844Z,23.53
2018-05-23T15:09:48.829Z,23.48
2018-05-23T15:12:14.777Z,23.48
2018-05-23T15:14:40.757Z,23.48
2018-05-23T15:17:06.717Z,23.51
2018-05-23T15:19:32.679Z,23.44
2018-05-23T15:21:58.704Z,23.49
2018-05-23T15:24:24.687Z,23.52
2018-05-23T15:26:50.711Z,23.49
2018-05-23T15:29:16.685Z,23.56
2018-05-23T15:31:42.655Z,23.56
2018-05-23T15:34:08.685Z,23.59
2018-05-23T15:36:34.633Z,23.60
2018-05-23T15:39:00.648Z,23.65
2018-05-23T15:41:26.636Z,23.71
2018-05-23T15:43:52.640Z,23.71
2018-05-23T15:46:18.634Z,23.83
2018-05-23T15:48:44.585Z,23.81
2018-05-23T15:51:10.643Z,23.80
2018-05-23T15:53:36.559Z,23.76
2018-05-23T15:56:02.503Z,23.71
2018-05-23T15:58:28.473Z,23.77
2018-05-23T16:00:54.442Z,23.74
2018-05-23T16:03:20.394Z,23.80
2018-05-23T16:05:46.344Z,23.73
2018-05-23T16:08:12.314Z,23.73
2018-05-23T16:10:38.258Z,23.74
2018-05-23T16:13:04.229Z,23.75
2018-05-23T16:15:30.208Z,23.76
2018-05-23T16:17:56.162Z,23.86
2018-05-23T16:20:23.204Z,23.82
2018-05-23T16:22:49.137Z,23.88
2018-05-23T16:25:15.161Z,23.90
2018-05-23T16:27:41.143Z,23.92
2018-05-23T16:30:07.100Z,23.86
2018-05-23T16:32:33.086Z,23.84
2018-05-23T16:34:59.054Z,23.82
2018-05-23T16:37:25.025Z,23.71
2018-05-23T16:39:50.980Z,23.72
2018-05-23T16:42:16.968Z,23.75
2018-05-23T16:44:43.063Z,23.70
2018-05-23T16:47:09.062Z,23.62
2018-05-23T16:49:35.127Z,23.63
2018-05-23T16:52:01.203Z,23.51
2018-05-23T16:54:27.163Z,23.51
2018-05-23T16:56:53.130Z,23.43
2018-05-23T16:59:19.091Z,23.52
2018-05-23T17:01:45.138Z,23.48
2018-05-23T17:04:11.147Z,23.41
2018-05-23T17:06:37.095Z,23.41
2018-05-23T17:09:03.080Z,23.35
2018-05-23T17:11:29.983Z,23.43
2018-05-23T17:13:56.173Z,23.34
2018-05-23T17:16:22.196Z,23.43
2018-05-23T17:18:48.298Z,23.44
2018-05-23T17:21:14.631Z,23.45
2018-05-23T17:23:40.592Z,23.45
2018-05-23T17:26:06.548Z,23.48
2018-05-23T17:28:32.558Z,23.37
2018-05-23T17:30:58.542Z,23.49
2018-05-23T17:33:24.593Z,23.36
2018-05-23T17:35:50.549Z,23.27
2018-05-23T17:38:16.575Z,23.30
2018-05-23T17:40:42.543Z,23.19
2018-05-23T17:43:08.541Z,23.18
2018-05-23T17:45:34.606Z,23.19
2018-05-23T17:48:00.592Z,23.23
2018-05-23T17:50:26.622Z,23.22
2018-05-23T17:52:52.609Z,23.17
2018-05-23T17:55:18.581Z,23.16
2018-05-23T17:57:44.589Z,23.13
2018-05-23T18:00:10.678Z,23.26
2018-05-23T18:02:36.692Z,23.20
2018-05-23T18:05:02.672Z,23.10
2018-05-23T18:07:28.681Z,23.11
2018-05-23T18:09:54.661Z,23.20
2018-05-23T18:12:20.595Z,23.12
2018-05-23T18:14:46.569Z,23.12
2018-05-23T18:17:12.524Z,23.07
2018-05-23T18:19:38.561Z,23.02
2018-05-23T18:22:04.519Z,23.08
2018-05-23T18:24:30.454Z,23.01
2018-05-23T18:26:56.436Z,23.03
2018-05-23T18:29:22.812Z,22.94
2018-05-23T18:31:48.810Z,23.01
2018-05-23T18:34:14.745Z,22.95
2018-05-23T18:36:40.687Z,22.94
2018-05-23T18:39:06.666Z,22.99
2018-05-23T18:41:32.636Z,22.99
2018-05-23T18:43:58.629Z,22.97
2018-05-23T18:46:25.658Z,22.96
2018-05-23T18:48:51.601Z,22.91
2018-05-23T18:51:17.613Z,22.96
2018-05-23T18:53:43.575Z,22.97
2018-05-23T18:56:09.557Z,22.96
2018-05-23T18:58:35.563Z,22.92
2018-05-23T19:01:01.510Z,22.86
2018-05-23T19:03:27.491Z,22.91
2018-05-23T19:05:53.456Z,22.91
2018-05-23T19:08:19.445Z,22.91
2018-05-23T19:10:45.425Z,22.93
2018-05-23T19:13:11.402Z,22.81
2018-05-23T19:15:37.345Z,22.80
2018-05-23T19:18:03.387Z,22.82
2018-05-23T19:20:29.665Z,22.90
2018-05-23T19:22:55.617Z,22.83
2018-05-23T19:25:21.550Z,22.80
2018-05-23T19:27:47.515Z,22.75
2018-05-23T19:30:13.502Z,22.81
2018-05-23T19:32:39.465Z,22.81
2018-05-23T19:35:05.434Z,22.73
2018-05-23T19:37:31.383Z,22.71
2018-05-23T19:39:57.359Z,22.71
2018-05-23T19:42:23.354Z,22.73
2018-05-23T19:44:49.321Z,22.73
2018-05-23T19:47:15.292Z,22.72
2018-05-23T19:49:41.259Z,22.71
2018-05-23T19:52:07.255Z,22.72
2018-05-23T19:54:33.200Z,22.71
2018-05-23T19:56:59.241Z,22.70
2018-05-23T19:59:25.250Z,22.67
2018-05-23T20:01:51.236Z,22.72
2018-05-23T20:04:17.233Z,22.72
2018-05-23T20:06:43.211Z,22.66
2018-05-23T20:09:09.172Z,22.63
2018-05-23T20:11:35.149Z,22.62
2018-05-23T20:14:01.218Z,22.57
2018-05-23T20:16:27.176Z,22.67
2018-05-23T20:18:53.150Z,22.63
2018-05-23T20:21:19.111Z,22.61
2018-05-23T20:23:45.137Z,22.60
2018-05-23T20:26:11.114Z,22.54
2018-05-23T20:28:37.067Z,22.47
2018-05-23T20:31:03.067Z,22.54
2018-05-23T20:33:29.071Z,22.49
2018-05-23T20:35:55.041Z,22.49
2018-05-23T20:38:20.982Z,22.44
2018-05-23T20:40:47.061Z,22.50
2018-05-23T20:43:13.008Z,22.37
2018-05-23T20:45:38.999Z,22.28
2018-05-23T20:48:05.029Z,22.42
2018-05-23T20:50:30.989Z,22.39
2018-05-23T20:52:56.977Z,22.42
2018-05-23T20:55:22.989Z,22.36
2018-05-23T20:57:48.946Z,22.34
2018-05-23T21:00:14.937Z,22.38
2018-05-23T21:02:40.888Z,22.38
2018-05-23T21:05:06.874Z,22.37
2018-05-23T21:07:32.827Z,22.30
2018-05-23T21:09:58.828Z,22.19
2018-05-23T21:12:24.774Z,22.26
2018-05-23T21:14:50.737Z,22.22
2018-05-23T21:17:16.673Z,22.19
2018-05-23T21:19:42.646Z,22.23
2018-05-23T21:22:08.605Z,22.21
2018-05-23T21:24:34.601Z,22.17
2018-05-23T21:27:00.611Z,22.18
2018-05-23T21:29:26.652Z,22.12
2018-05-23T21:31:52.613Z,22.07
2018-05-23T21:34:18.617Z,22.00
2018-05-23T21:36:44.671Z,22.10
2018-05-23T21:39:10.644Z,22.01
2018-05-23T21:41:36.638Z,22.04
2018-05-23T21:44:02.577Z,22.12
2018-05-23T21:46:28.545Z,22.10
2018-05-23T21:48:54.501Z,22.10
2018-05-23T21:51:20.461Z,22.03
2018-05-23T21:53:46.430Z,22.05
2018-05-23T21:56:12.470Z,21.88
2018-05-23T21:58:38.366Z,21.98
2018-05-23T22:01:04.323Z,21.95
2018-05-23T22:03:30.273Z,21.98
2018-05-23T22:05:56.250Z,21.88
2018-05-23T22:08:22.218Z,21.83
2018-05-23T22:10:48.208Z,21.90
2018-05-23T22:13:14.165Z,21.91
2018-05-23T22:15:40.126Z,21.98
2018-05-23T22:18:06.084Z,21.91
2018-05-23T22:20:32.059Z,21.74
2018-05-23T22:22:58.010Z,21.83
2018-05-23T22:25:23.996Z,21.74
2018-05-23T22:27:49.955Z,21.86
2018-05-23T22:30:15.945Z,21.70
2018-05-23T22:32:41.914Z,21.80
2018-05-23T22:35:07.885Z,21.79
2018-05-23T22:37:33.851Z,21.62
2018-05-23T22:39:59.805Z,21.67
2018-05-23T22:42:25.761Z,21.66
2018-05-23T22:44:51.713Z,21.65
2018-05-23T22:47:17.670Z,21.65
2018-05-23T22:49:43.634Z,21.64
2018-05-23T22:52:09.599Z,21.64
2018-05-23T22:54:35.576Z,21.71
2018-05-23T22:57:01.509Z,21.61
2018-05-23T22:59:27.453Z,21.58
2018-05-23T23:01:53.439Z,21.66
2018-05-23T23:04:19.412Z,21.65
2018-05-23T23:06:45.352Z,21.66
2018-05-23T23:09:11.314Z,21.68
2018-05-23T23:11:37.286Z,21.58
2018-05-23T23:14:03.245Z,21.56
2018-05-23T23:16:29.214Z,21.70
2018-05-23T23:18:55.212Z,21.59
2018-05-23T23:21:21.173Z,21.65
2018-05-23T23:23:47.112Z,21.55
2018-05-23T23:26:13.062Z,21.48
2018-05-23T23:28:38.995Z,21.62
2018-05-23T23:31:04.975Z,21.45
2018-05-23T23:33:30.933Z,21.42
2018-05-23T23:35:56.920Z,21.47
2018-05-23T23:38:22.853Z,21.55
2018-05-23T23:40:48.842Z,21.55
2018-05-23T23:43:14.823Z,21.47
2018-05-23T23:45:40.957Z,21.51
2018-05-23T23:48:06.797Z,21.41
2018-05-23T23:50:32.755Z,21.47
2018-05-23T23:52:58.718Z,21.53
2018-05-23T23:55:24.675Z,21.46
2018-05-23T23:57:50.689Z,21.42
